createdAt,value
2023-01-25T00:01:32.242Z,33.47
2023-01-25T00:04:34.874Z,37.83
2023-01-25T00:07:37.116Z,40.00
2023-01-25T00:10:39.604Z,35.75
2023-01-25T00:13:42.112Z,39.42
2023-01-25T00:16:45.041Z,34.72
2023-01-25T00:19:47.217Z,34.55
2023-01-25T00:22:49.707Z,36.10
2023-01-25T00:25:59.037Z,33.30
2023-01-25T00:29:02.586Z,43.95
2023-01-25T00:32:32.442Z,30.50
2023-01-25T00:35:35.212Z,30.65
2023-01-25T00:38:38.608Z,29.20
2023-01-25T00:41:41.326Z,34.63
2023-01-25T00:44:43.674Z,33.75
2023-01-25T00:47:46.176Z,33.47
2023-01-25T00:50:48.426Z,37.67
2023-01-25T00:53:51.924Z,35.05
2023-01-25T00:56:56.448Z,35.83
2023-01-25T00:59:59.402Z,32.95
2023-01-25T01:03:01.643Z,37.42
2023-01-25T01:06:10.413Z,37.47
2023-01-25T01:09:16.475Z,33.65
2023-01-25T01:12:19.775Z,38.17
2023-01-25T01:15:22.010Z,35.65
2023-01-25T01:18:24.643Z,32.93
2023-01-25T01:21:28.805Z,30.40
2023-01-25T01:24:32.420Z,31.42
2023-01-25T01:27:34.595Z,36.75
2023-01-25T01:30:37.737Z,34.90
2023-01-25T01:33:40.865Z,34.47
2023-01-25T01:36:44.158Z,31.42
2023-01-25T01:39:46.356Z,35.35
2023-01-25T01:43:17.195Z,35.90
2023-01-25T01:46:34.536Z,36.30
2023-01-25T01:49:37.734Z,35.83
2023-01-25T01:52:40.918Z,32.10
2023-01-25T01:55:43.600Z,31.52
2023-01-25T01:58:49.709Z,39.88
2023-01-25T02:01:52.450Z,28.08
2023-01-25T02:05:01.281Z,33.67
2023-01-25T02:08:05.572Z,32.85
2023-01-25T02:11:09.164Z,34.45
2023-01-25T02:14:11.588Z,33.83
2023-01-25T02:17:14.366Z,27.37
2023-01-25T02:20:39.495Z,34.20
2023-01-25T02:23:51.063Z,34.95
2023-01-25T02:26:53.461Z,31.87
2023-01-25T02:29:57.364Z,28.85
2023-01-25T02:32:59.931Z,33.17
2023-01-25T02:36:08.469Z,31.92
2023-01-25T02:39:20.130Z,33.30
2023-01-25T02:42:24.760Z,30.48
2023-01-25T02:45:30.176Z,31.50
2023-01-25T02:48:32.711Z,33.55
2023-01-25T02:51:38.635Z,25.70
2023-01-25T02:54:41.290Z,27.58
2023-01-25T02:57:44.296Z,27.42
2023-01-25T03:00:48.325Z,28.83
2023-01-25T03:03:50.550Z,27.70
2023-01-25T03:06:53.646Z,32.85
2023-01-25T03:09:55.992Z,31.02
2023-01-25T03:12:59.740Z,34.67
2023-01-25T03:16:06.335Z,30.43
2023-01-25T03:19:09.127Z,31.73
2023-01-25T03:22:11.325Z,30.98
2023-01-25T03:25:14.015Z,31.47
2023-01-25T03:28:18.742Z,27.95
2023-01-25T03:31:24.833Z,23.65
2023-01-25T03:34:27.304Z,25.20
2023-01-25T03:37:30.149Z,24.63
2023-01-25T03:40:32.612Z,21.98
2023-01-25T03:43:35.994Z,23.58
2023-01-25T03:46:42.556Z,27.48
2023-01-25T03:49:46.276Z,29.98
2023-01-25T03:53:29.627Z,27.15
2023-01-25T03:56:33.219Z,32.88
2023-01-25T03:59:36.359Z,23.25
2023-01-25T04:02:39.814Z,29.27
2023-01-25T04:05:43.437Z,27.95
2023-01-25T04:08:46.667Z,29.33
2023-01-25T04:11:51.136Z,32.97
2023-01-25T04:14:55.150Z,27.45
2023-01-25T04:17:57.950Z,32.20
2023-01-25T04:21:00.476Z,27.10
2023-01-25T04:24:03.215Z,32.13
2023-01-25T04:27:06.283Z,31.10
2023-01-25T04:33:12.128Z,36.72
2023-01-25T04:36:15.184Z,31.70
2023-01-25T04:39:18.983Z,29.58
2023-01-25T04:42:22.268Z,27.80
2023-01-25T04:45:25.769Z,24.58
2023-01-25T04:48:29.905Z,32.05
2023-01-25T04:51:32.293Z,31.02
2023-01-25T04:54:34.791Z,31.85
2023-01-25T04:57:37.404Z,32.90
2023-01-25T05:00:39.884Z,26.58
2023-01-25T05:03:42.277Z,30.60
2023-01-25T05:06:46.775Z,32.20
2023-01-25T05:09:49.210Z,29.27
2023-01-25T05:12:54.497Z,24.60
2023-01-25T05:15:57.703Z,26.87
2023-01-25T05:19:00.571Z,25.88
2023-01-25T05:22:07.625Z,26.37
2023-01-25T05:25:31.944Z,30.45
2023-01-25T05:28:35.460Z,26.45
2023-01-25T05:31:39.500Z,32.10
2023-01-25T05:34:42.414Z,27.70
2023-01-25T05:37:44.915Z,26.67
2023-01-25T05:40:49.271Z,21.10
2023-01-25T05:43:52.277Z,31.30
2023-01-25T05:46:54.698Z,25.33
2023-01-25T05:49:57.279Z,21.25
2023-01-25T05:52:59.908Z,19.77
2023-01-25T05:56:05.368Z,20.33
2023-01-25T05:59:07.880Z,20.37
2023-01-25T06:02:11.360Z,23.42
2023-01-25T06:05:14.825Z,19.58
2023-01-25T06:11:23.043Z,16.80
2023-01-25T06:14:27.504Z,17.87
2023-01-25T06:17:31.398Z,20.88
2023-01-25T06:20:35.323Z,18.85
2023-01-25T06:23:41.781Z,20.62
2023-01-25T06:26:46.157Z,19.37
2023-01-25T06:32:53.768Z,26.90
2023-01-25T06:36:00.652Z,20.35
2023-01-25T06:39:04.546Z,20.65
2023-01-25T06:42:07.434Z,17.48
2023-01-25T06:45:10.701Z,19.55
2023-01-25T06:48:13.826Z,21.02
2023-01-25T06:51:16.727Z,22.83
2023-01-25T06:54:19.337Z,17.62
2023-01-25T06:57:21.553Z,16.65
2023-01-25T07:00:24.073Z,19.67
2023-01-25T07:03:26.220Z,18.27
2023-01-25T07:06:34.784Z,21.92
2023-01-25T07:09:37.164Z,20.42
2023-01-25T07:12:39.691Z,17.97
2023-01-25T07:15:41.887Z,17.17
2023-01-25T07:18:44.605Z,16.77
2023-01-25T07:21:47.193Z,15.07
2023-01-25T07:24:52.169Z,19.23
2023-01-25T07:27:55.382Z,17.45
2023-01-25T07:31:06.222Z,16.95
2023-01-25T07:34:13.638Z,19.30
2023-01-25T07:37:16.261Z,17.45
2023-01-25T07:40:18.447Z,18.90
2023-01-25T07:43:20.963Z,18.80
2023-01-25T07:46:23.914Z,19.58
2023-01-25T07:49:26.477Z,17.15
2023-01-25T07:52:28.950Z,16.98
2023-01-25T07:55:31.532Z,21.87
2023-01-25T07:58:34.104Z,22.35
2023-01-25T08:01:37.359Z,17.20
2023-01-25T08:04:40.090Z,21.80
2023-01-25T08:07:42.273Z,21.67
2023-01-25T08:10:44.788Z,19.67
2023-01-25T08:13:49.051Z,17.23
2023-01-25T08:16:51.627Z,24.70
2023-01-25T08:19:53.790Z,18.20
2023-01-25T08:22:56.277Z,22.90
2023-01-25T08:26:03.228Z,18.65
2023-01-25T08:29:07.297Z,18.37
2023-01-25T08:32:09.516Z,18.83
2023-01-25T08:35:12.444Z,20.62
2023-01-25T08:38:14.715Z,16.23
2023-01-25T08:41:22.095Z,18.48
2023-01-25T08:44:26.011Z,14.73
2023-01-25T08:47:28.660Z,14.30
2023-01-25T08:50:31.157Z,18.33
2023-01-25T08:53:33.827Z,17.62
2023-01-25T08:56:42.588Z,17.05
2023-01-25T08:59:45.259Z,15.65
2023-01-25T09:02:47.487Z,15.20
2023-01-25T09:05:49.990Z,13.80
2023-01-25T09:08:52.232Z,18.25
2023-01-25T09:11:55.063Z,19.00
2023-01-25T09:14:57.415Z,17.90
2023-01-25T09:18:00.022Z,17.27
2023-01-25T09:21:09.755Z,15.20
2023-01-25T09:24:12.433Z,19.00
2023-01-25T09:27:14.684Z,17.80
2023-01-25T09:30:19.055Z,17.42
2023-01-25T09:33:28.774Z,22.42
2023-01-25T09:36:31.256Z,19.05
2023-01-25T09:39:33.515Z,20.77
2023-01-25T09:42:47.056Z,20.98
2023-01-25T09:45:49.475Z,21.23
2023-01-25T09:49:16.636Z,18.00
2023-01-25T09:52:38.922Z,19.02
2023-01-25T09:56:12.981Z,20.55
2023-01-25T09:59:18.555Z,16.60
2023-01-25T10:02:30.647Z,16.05
2023-01-25T10:05:51.000Z,17.98
2023-01-25T10:09:01.077Z,18.77
2023-01-25T10:12:20.468Z,19.48
2023-01-25T10:15:29.010Z,17.30
2023-01-25T10:19:01.888Z,16.50
2023-01-25T10:22:24.747Z,19.98
2023-01-25T10:25:45.674Z,16.30
2023-01-25T10:29:04.237Z,18.50
2023-01-25T10:32:26.965Z,20.27
2023-01-25T10:35:38.883Z,16.75
2023-01-25T10:38:46.512Z,20.12
2023-01-25T10:42:05.099Z,19.95
2023-01-25T10:45:17.292Z,14.40
2023-01-25T10:54:31.906Z,18.40
2023-01-25T10:57:35.913Z,18.95
2023-01-25T11:00:40.976Z,16.65
2023-01-25T11:03:47.015Z,15.82
2023-01-25T11:06:51.455Z,16.15
2023-01-25T11:09:54.354Z,17.08
2023-01-25T11:13:15.057Z,15.45
2023-01-25T11:16:26.617Z,16.25
2023-01-25T11:19:30.638Z,14.63
2023-01-25T11:22:33.118Z,16.67
2023-01-25T11:25:35.778Z,17.27
2023-01-25T11:28:38.056Z,21.58
2023-01-25T11:31:45.731Z,20.12
2023-01-25T11:34:49.971Z,15.68
2023-01-25T11:38:11.378Z,15.23
2023-01-25T11:41:35.089Z,15.50
2023-01-25T11:48:43.659Z,15.27
2023-01-25T11:51:46.135Z,16.17
2023-01-25T11:54:56.969Z,12.68
2023-01-25T11:58:02.638Z,16.87
2023-01-25T12:01:27.539Z,17.65
2023-01-25T12:04:42.472Z,15.20
2023-01-25T12:08:12.983Z,21.75
2023-01-25T12:12:09.476Z,18.10
2023-01-25T12:15:36.364Z,17.92
2023-01-25T12:19:00.617Z,14.20
2023-01-25T12:22:02.913Z,13.80
2023-01-25T12:25:20.782Z,15.70
2023-01-25T12:28:29.028Z,11.70
2023-01-25T12:31:42.372Z,15.20
2023-01-25T12:34:50.508Z,17.80
2023-01-25T12:37:58.523Z,16.48
2023-01-25T12:41:28.581Z,17.40
2023-01-25T12:44:51.659Z,15.82
2023-01-25T12:48:01.751Z,13.07
2023-01-25T12:51:04.418Z,17.42
2023-01-25T12:54:16.940Z,17.30
2023-01-25T12:57:57.267Z,19.15
2023-01-25T13:01:08.532Z,17.60
2023-01-25T13:04:44.863Z,13.43
2023-01-25T13:08:00.903Z,16.08
2023-01-25T13:11:10.855Z,16.15
2023-01-25T13:14:16.778Z,16.65
2023-01-25T13:17:22.502Z,19.65
2023-01-25T13:20:40.278Z,16.50
2023-01-25T13:23:47.488Z,13.68
2023-01-25T13:26:59.285Z,18.35
2023-01-25T13:30:23.340Z,16.62
2023-01-25T13:33:36.008Z,15.07
2023-01-25T13:36:42.899Z,20.37
2023-01-25T13:39:48.120Z,14.55
2023-01-25T13:43:23.174Z,20.37
2023-01-25T13:46:26.018Z,15.82
2023-01-25T13:49:36.142Z,19.17
2023-01-25T13:52:38.387Z,13.52
2023-01-25T13:55:43.662Z,17.12
2023-01-25T13:58:48.026Z,20.15
2023-01-25T14:01:51.435Z,15.90
2023-01-25T14:04:54.143Z,16.27
2023-01-25T14:07:57.500Z,18.75
2023-01-25T14:11:00.394Z,15.63
2023-01-25T14:14:16.845Z,16.50
2023-01-25T14:17:22.066Z,16.30
2023-01-25T14:20:24.583Z,16.55
2023-01-25T14:23:29.305Z,19.47
2023-01-25T14:26:33.179Z,17.30
2023-01-25T14:29:35.756Z,18.52
2023-01-25T14:32:37.961Z,19.77
2023-01-25T14:35:53.678Z,14.68
2023-01-25T14:38:56.822Z,19.95
2023-01-25T14:42:01.748Z,17.02
2023-01-25T14:45:04.559Z,15.63
2023-01-25T14:48:33.505Z,14.27
2023-01-25T14:51:48.299Z,19.40
2023-01-25T14:54:53.330Z,16.05
2023-01-25T14:58:00.739Z,21.50
2023-01-25T15:01:03.770Z,19.75
2023-01-25T15:04:11.854Z,19.03
2023-01-25T15:07:46.007Z,18.12
2023-01-25T15:10:53.997Z,21.62
2023-01-25T15:14:05.846Z,20.40
2023-01-25T15:17:41.325Z,25.35
2023-01-25T15:20:44.020Z,22.83
2023-01-25T15:23:47.955Z,18.02
2023-01-25T15:26:53.069Z,20.83
2023-01-25T15:29:55.191Z,18.67
2023-01-25T15:32:58.245Z,20.70
2023-01-25T15:36:00.375Z,20.20
2023-01-25T15:39:03.167Z,22.17
2023-01-25T15:42:06.117Z,22.25
2023-01-25T15:45:12.130Z,20.30
2023-01-25T15:48:35.772Z,20.62
2023-01-25T15:51:38.256Z,26.10
2023-01-25T15:54:44.036Z,21.60
2023-01-25T15:57:51.318Z,24.87
2023-01-25T16:00:53.719Z,19.15
2023-01-25T16:03:59.208Z,25.58
2023-01-25T16:07:02.055Z,25.65
2023-01-25T16:10:04.818Z,26.85
2023-01-25T16:13:08.987Z,20.85
2023-01-25T16:16:20.860Z,20.10
2023-01-25T16:19:24.226Z,25.15
2023-01-25T16:22:26.638Z,23.75
2023-01-25T16:25:28.854Z,23.90
2023-01-25T16:28:31.384Z,24.35
2023-01-25T16:31:33.825Z,24.50
2023-01-25T16:34:36.720Z,23.52
2023-01-25T16:37:39.009Z,25.70
2023-01-25T16:40:41.598Z,19.67
2023-01-25T16:43:45.748Z,23.42
2023-01-25T16:46:50.072Z,20.83
2023-01-25T16:49:52.323Z,17.58
2023-01-25T16:52:56.129Z,21.48
2023-01-25T16:59:05.317Z,26.73
2023-01-25T17:02:11.715Z,20.08
2023-01-25T17:05:14.444Z,18.65
2023-01-25T17:08:17.028Z,19.23
2023-01-25T17:11:20.007Z,24.90
2023-01-25T17:14:22.820Z,23.93
2023-01-25T17:17:27.808Z,21.50
2023-01-25T17:20:30.194Z,21.05
2023-01-25T17:23:34.973Z,22.42
2023-01-25T17:26:37.499Z,25.25
2023-01-25T17:29:40.216Z,23.87
2023-01-25T17:32:42.485Z,23.30
2023-01-25T17:35:45.149Z,22.83
2023-01-25T17:38:48.138Z,22.10
2023-01-25T17:41:51.402Z,22.35
2023-01-25T17:44:53.564Z,21.45
2023-01-25T17:47:56.180Z,21.65
2023-01-25T17:51:02.960Z,25.90
2023-01-25T17:54:06.008Z,22.77
2023-01-25T17:57:08.256Z,22.37
2023-01-25T18:00:12.054Z,20.35
2023-01-25T18:03:14.631Z,21.02
2023-01-25T18:06:20.454Z,22.70
2023-01-25T18:09:23.765Z,24.08
2023-01-25T18:12:27.295Z,20.95
2023-01-25T18:15:29.620Z,26.77
2023-01-25T18:18:32.627Z,17.60
2023-01-25T18:21:35.909Z,24.05
2023-01-25T18:27:40.723Z,18.00
2023-01-25T18:30:49.574Z,24.27
2023-01-25T18:33:52.154Z,24.45
2023-01-25T18:36:58.371Z,19.92
2023-01-25T18:40:00.724Z,21.10
2023-01-25T18:43:03.437Z,24.67
2023-01-25T18:46:05.960Z,26.65
2023-01-25T18:49:09.245Z,22.75
2023-01-25T18:52:12.160Z,23.00
2023-01-25T18:55:15.186Z,25.25
2023-01-25T18:58:17.416Z,22.02
2023-01-25T19:01:22.366Z,25.40
2023-01-25T19:04:24.600Z,20.42
2023-01-25T19:07:27.279Z,20.80
2023-01-25T19:10:29.572Z,27.52
2023-01-25T19:13:37.107Z,25.48
2023-01-25T19:16:39.318Z,19.75
2023-01-25T19:19:44.029Z,20.80
2023-01-25T19:22:47.835Z,18.00
2023-01-25T19:25:56.529Z,22.80
2023-01-25T19:28:58.684Z,18.83
2023-01-25T19:32:01.170Z,20.23
2023-01-25T19:38:08.671Z,20.58
2023-01-25T19:41:13.569Z,20.67
2023-01-25T19:44:16.160Z,22.55
2023-01-25T19:47:18.475Z,24.27
2023-01-25T19:50:21.087Z,22.33
2023-01-25T19:53:23.379Z,21.02
2023-01-25T19:56:28.150Z,24.35
2023-01-25T19:59:30.557Z,23.70
2023-01-25T20:02:33.640Z,21.37
2023-01-25T20:05:36.481Z,19.37
2023-01-25T20:08:40.912Z,20.25
2023-01-25T20:11:43.608Z,19.83
2023-01-25T20:14:45.848Z,19.50
2023-01-25T20:17:48.337Z,22.45
2023-01-25T20:20:55.860Z,21.67
2023-01-25T20:24:02.522Z,23.00
2023-01-25T20:27:04.876Z,19.05
2023-01-25T20:30:08.206Z,17.02
2023-01-25T20:33:10.469Z,22.23
2023-01-25T20:36:13.469Z,24.50
2023-01-25T20:39:20.546Z,19.55
2023-01-25T20:42:23.053Z,18.50
2023-01-25T20:45:25.297Z,17.30
2023-01-25T20:48:29.516Z,17.98
2023-01-25T20:51:32.203Z,19.75
2023-01-25T20:54:34.715Z,21.37
2023-01-25T20:57:37.616Z,19.45
2023-01-25T21:00:40.235Z,16.05
2023-01-25T21:03:42.887Z,18.20
2023-01-25T21:06:46.128Z,18.40
2023-01-25T21:09:48.503Z,18.42
2023-01-25T21:12:51.159Z,18.30
2023-01-25T21:16:23.922Z,17.20
2023-01-25T21:19:26.719Z,24.17
2023-01-25T21:22:29.984Z,20.90
2023-01-25T21:28:35.299Z,21.75
2023-01-25T21:31:39.793Z,20.95
2023-01-25T21:34:42.023Z,21.15
2023-01-25T21:37:46.147Z,17.25
2023-01-25T21:40:48.290Z,18.60
2023-01-25T21:44:11.395Z,20.17
2023-01-25T21:47:29.467Z,21.35
2023-01-25T21:50:51.279Z,19.55
2023-01-25T21:53:53.908Z,19.23
2023-01-25T21:56:57.716Z,18.10
2023-01-25T22:03:03.268Z,23.95
2023-01-25T22:06:06.151Z,18.75
2023-01-25T22:09:09.126Z,23.30
2023-01-25T22:12:12.388Z,19.48
2023-01-25T22:15:14.642Z,16.60
2023-01-25T22:18:17.225Z,18.08
2023-01-25T22:21:22.197Z,21.08
2023-01-25T22:24:24.822Z,21.58
2023-01-25T22:27:33.267Z,16.27
2023-01-25T22:30:35.789Z,18.77
2023-01-25T22:33:38.090Z,17.15
2023-01-25T22:36:40.639Z,17.85
2023-01-25T22:39:42.952Z,23.02
2023-01-25T22:42:45.649Z,20.85
2023-01-25T22:45:52.198Z,18.50
2023-01-25T22:48:55.203Z,18.45
2023-01-25T22:51:57.448Z,18.70
2023-01-25T22:54:59.984Z,15.73
2023-01-25T22:58:02.293Z,18.80
2023-01-25T23:01:09.665Z,20.88
2023-01-25T23:04:12.323Z,16.80
2023-01-25T23:07:18.714Z,23.27
2023-01-25T23:10:21.113Z,23.90
2023-01-25T23:13:23.706Z,21.80
2023-01-25T23:16:25.975Z,19.65
2023-01-25T23:19:28.802Z,19.23
2023-01-25T23:22:30.963Z,21.58
2023-01-25T23:25:33.542Z,20.05
2023-01-25T23:28:35.861Z,24.02
2023-01-25T23:31:38.634Z,17.37
2023-01-25T23:34:41.497Z,19.85
2023-01-25T23:37:45.946Z,21.45
2023-01-25T23:40:48.785Z,21.83
2023-01-25T23:43:51.285Z,22.08
2023-01-25T23:46:53.432Z,22.87
2023-01-25T23:49:56.234Z,21.33
2023-01-25T23:52:58.473Z,19.20
2023-01-25T23:56:05.863Z,21.10
2023-01-25T23:59:08.135Z,19.87
